^^
Station Historical Data
 
Daily Summary for November 22, 2017 Units:  Metric    English   Both
« Previous Day
Next Day »
Daily Weekly Monthly Yearly Custom
  Current: High: Low: Average:
Temperature: 2.0 °C 2.0 °C -0.2 °C 0.9 °C
Dew Point: -2.7 °C -0.6 °C -5.2 °C -2.8 °C
Humidity: 71% 91% 59% 77%
Wind Speed: 16.7km/h 64.8km/h 3.7km/h 21km/h
Wind Gust: 16.7km/h 64.8km/h - -
WindNNW - - East
Pressure: 1002.6 hPa 1011.7 hPa 1001.6 hPa -
Precipitation: 0.0 mm      
Historical Graphs
 
 
Tabular Data for November 22, 2017
Time Temperature Dew Point Pressure Wind Wind Speed Wind Gust Humidity Rainfall Rate (Hourly) solar Conditions
00:05 0.0 °C -1.9 °C 1010.7 hPa NE 18.5 km/h 18.5 km/h 87% 0.0 mm 0.0 W/m2 CLR
00:10 0.1 °C -1.8 °C 1009.7 hPa ENE 14.8 km/h 14.8 km/h 87% 0.0 mm 0.0 W/m2 CLR
00:15 0.1 °C -1.8 °C 1009.7 hPa NE 16.7 km/h 16.7 km/h 87% 0.0 mm 0.0 W/m2 CLR
00:20 0.1 °C -1.8 °C 1009.7 hPa NE 14.8 km/h 14.8 km/h 87% 0.0 mm 0.0 W/m2 CLR
00:25 0.1 °C -1.8 °C 1011.7 hPa NE 35.2 km/h 35.2 km/h 87% 0.0 mm 0.0 W/m2 CLR
00:30 0.1 °C -1.9 °C 1011.7 hPa NE 14.8 km/h 14.8 km/h 86% 0.0 mm 0.0 W/m2 CLR
00:35 0.0 °C -2.4 °C 1011.7 hPa ESE 14.8 km/h 14.8 km/h 84% 0.0 mm 0.0 W/m2 CLR
00:55 0.0 °C -2.6 °C 1008.7 hPa ENE 20.4 km/h 20.4 km/h 83% 0.0 mm 0.0 W/m2 CLR
01:00 0.0 °C -2.6 °C 1008.7 hPa ENE 19.3 km/h 19.3 km/h 83% 0.0 mm 0.0 W/m2 CLR
01:05 0.0 °C -2.6 °C 1008.7 hPa NNE 11.1 km/h 11.1 km/h 83% 0.0 mm 0.0 W/m2 CLR
01:10 0.0 °C -2.7 °C 1008.7 hPa East 14.8 km/h 14.8 km/h 82% 0.0 mm 0.0 W/m2 CLR
01:15 0.0 °C -2.9 °C 1008.7 hPa NE 11.1 km/h 11.1 km/h 81% 0.0 mm 0.0 W/m2 CLR
01:20 -0.1 °C -2.8 °C 1008.7 hPa East 11.9 km/h 11.9 km/h 82% 0.0 mm 0.0 W/m2 CLR
01:30 0.0 °C -2.9 °C 1008.7 hPa NE 11.9 km/h 11.9 km/h 81% 0.0 mm 0.0 W/m2 CLR
01:35 0.0 °C -2.9 °C 1008.7 hPa ENE 25.9 km/h 25.9 km/h 81% 0.0 mm 0.0 W/m2 CLR
01:40 -0.1 °C -2.9 °C 1007.7 hPa ENE 17.7 km/h 17.7 km/h 81% 0.0 mm 0.0 W/m2 CLR
01:45 -0.1 °C -2.9 °C 1007.7 hPa North 6.9 km/h   81% 0.0 mm 0.0 W/m2 CLR
01:50 -0.2 °C -2.9 °C 1007.7 hPa WNW 7.4 km/h 7.4 km/h 82% 0.0 mm 0.0 W/m2 CLR
01:55 -0.2 °C -2.7 °C 1008.7 hPa NE 18.2 km/h   83% 0.0 mm 0.0 W/m2 CLR
02:00 0.0 °C -2.4 °C 1008.7 hPa ESE 14.8 km/h 14.8 km/h 84% 0.0 mm 0.0 W/m2 CLR
02:05 0.0 °C -2.4 °C 1008.7 hPa East 24.0 km/h 24.0 km/h 84% 0.0 mm 0.0 W/m2 CLR
02:10 0.0 °C -2.4 °C 1007.7 hPa ENE 18.5 km/h 18.5 km/h 84% 0.0 mm 0.0 W/m2 CLR
02:20 0.0 °C -2.2 °C 1007.7 hPa NE 23.2 km/h 23.2 km/h 85% 0.0 mm 0.0 W/m2 CLR
02:21 0.0 °C -2.2 °C 1007.7 hPa ESE 24.1 km/h 24.1 km/h 85% 0.0 mm 0.0 W/m2 CLR
02:26 0.0 °C -2.1 °C 1007.7 hPa NW 14.8 km/h 14.8 km/h 86% 0.0 mm 0.0 W/m2 CLR
02:31 0.0 °C -2.1 °C 1007.7 hPa SE 9.3 km/h 9.3 km/h 86% 0.0 mm 0.0 W/m2 CLR
02:36 0.1 °C -1.8 °C 1007.7 hPa ESE 14.8 km/h 14.8 km/h 87% 0.0 mm 0.0 W/m2 CLR
02:41 0.2 °C -1.7 °C 1007.7 hPa NE 14.8 km/h 14.8 km/h 87% 0.0 mm 0.0 W/m2 CLR
02:46 0.1 °C -1.8 °C 1007.7 hPa NE 16.7 km/h 16.7 km/h 87% 0.0 mm 0.0 W/m2 CLR
02:51 0.2 °C -1.7 °C 1007.7 hPa North 14.8 km/h 14.8 km/h 87% 0.0 mm 0.0 W/m2 CLR
02:56 0.2 °C -1.7 °C 1006.7 hPa NE 25.6 km/h 25.6 km/h 87% 0.0 mm 0.0 W/m2 CLR
03:01 0.2 °C -1.7 °C 1006.7 hPa East 14.0 km/h 14.0 km/h 87% 0.0 mm 0.0 W/m2 CLR
03:06 0.2 °C -1.6 °C 1006.7 hPa NNE 7.4 km/h 7.4 km/h 88% 0.0 mm 0.0 W/m2 CLR
03:11 0.2 °C -1.6 °C 1006.7 hPa NNW 14.8 km/h 14.8 km/h 88% 0.0 mm 0.0 W/m2 CLR
03:16 0.2 °C -1.6 °C 1006.7 hPa NE 35.2 km/h 35.2 km/h 88% 0.0 mm 0.0 W/m2 CLR
03:26 0.3 °C -1.3 °C 1006.7 hPa NNE 18.5 km/h 18.5 km/h 89% 0.0 mm 0.0 W/m2 CLR
03:31 0.3 °C -1.3 °C 1006.7 hPa ENE 18.5 km/h 18.5 km/h 89% 0.0 mm 0.0 W/m2 CLR
03:36 0.3 °C -1.3 °C 1006.7 hPa SE 18.5 km/h 18.5 km/h 89% 0.0 mm 0.0 W/m2 CLR
03:41 0.3 °C -1.3 °C 1005.6 hPa ENE 7.4 km/h 7.4 km/h 89% 0.0 mm 0.0 W/m2 CLR
03:46 0.3 °C -1.2 °C 1005.6 hPa ESE 7.4 km/h 7.4 km/h 90% 0.0 mm 0.0 W/m2 CLR
03:51 0.3 °C -1.2 °C 1005.6 hPa ENE 14.8 km/h 15.4 km/h 90% 0.0 mm 0.0 W/m2 CLR
03:57 0.3 °C -1.2 °C 1004.6 hPa North 25.9 km/h 25.9 km/h 90% 0.0 mm 0.0 W/m2 CLR
04:07 0.5 °C -0.8 °C 1004.6 hPa NE 26.2 km/h 26.2 km/h 91% 0.0 mm 0.0 W/m2 CLR
04:12 0.5 °C -0.8 °C 1003.6 hPa ENE 19.3 km/h 19.3 km/h 91% 0.0 mm 0.0 W/m2 CLR
04:17 0.7 °C -0.6 °C 1003.6 hPa NNW 22.7 km/h 22.7 km/h 91% 0.0 mm 0.0 W/m2 CLR
04:22 0.7 °C -0.6 °C 1003.6 hPa NW 11.1 km/h 11.1 km/h 91% 1.0 mm 0.0 W/m2 RA
04:23 0.7 °C -0.6 °C 1003.6 hPa NNE 11.1 km/h 11.1 km/h 91% 1.0 mm 0.0 W/m2 RA
04:27 0.6 °C -0.8 °C 1003.6 hPa NE 11.1 km/h 11.1 km/h 90% 1.0 mm 0.0 W/m2 RA
04:32 0.6 °C -0.8 °C 1003.6 hPa NE 28.3 km/h 28.3 km/h 90% 1.0 mm 0.0 W/m2
04:36 0.7 °C -0.8 °C 1003.6 hPa NNE 20.4 km/h 20.4 km/h 90% 1.0 mm 0.0 W/m2
04:41 0.7 °C -0.8 °C 1003.6 hPa NE 18.5 km/h 18.5 km/h 90% 1.0 mm 0.0 W/m2 CLR
04:46 0.7 °C -0.8 °C 1003.6 hPa East 16.7 km/h 16.7 km/h 90% 1.0 mm 0.0 W/m2 CLR
05:01 0.7 °C -0.9 °C 1003.6 hPa ENE 29.0 km/h 29.0 km/h 89% 2.3 mm 0.0 W/m2 RA
05:06 0.7 °C -1.1 °C 1003.6 hPa North 11.1 km/h 11.1 km/h 88% 2.3 mm 0.0 W/m2 RA
05:11 0.7 °C -1.1 °C 1004.6 hPa NE 18.5 km/h 18.5 km/h 88% 2.3 mm 0.0 W/m2
05:16 0.8 °C -1.1 °C 1004.6 hPa NE 29.6 km/h 29.6 km/h 87% 2.3 mm 0.0 W/m2 CLR
05:21 0.7 °C -1.2 °C 1004.6 hPa NE 14.8 km/h 14.8 km/h 87% 2.3 mm 0.0 W/m2 CLR
05:26 0.8 °C -1.1 °C 1003.6 hPa ENE 25.9 km/h 25.9 km/h 87% 1.3 mm 0.0 W/m2 CLR
05:31 0.7 °C -1.4 °C 1003.6 hPa NE 20.4 km/h 20.4 km/h 86% 2.3 mm 0.0 W/m2 RA
05:41 0.8 °C -1.4 °C 1002.6 hPa NNE 20.4 km/h 20.4 km/h 85% 2.3 mm 0.0 W/m2
05:51 0.9 °C -2.2 °C 1002.6 hPa ENE 25.9 km/h 25.9 km/h 80% 2.3 mm 0.0 W/m2 CLR
06:16 0.9 °C -2.8 °C 1002.6 hPa SW 31.5 km/h 31.5 km/h 76% 2.0 mm 0.0 W/m2 CLR
06:21 0.9 °C -2.8 °C 1002.6 hPa NE 31.5 km/h 31.5 km/h 76% 2.0 mm 0.0 W/m2 CLR
06:26 1.0 °C -2.9 °C 1002.6 hPa NE 25.9 km/h 25.9 km/h 75% 3.0 mm 0.0 W/m2 RA
06:31 0.9 °C -3.1 °C 1002.6 hPa SE 11.1 km/h 11.1 km/h 75% 2.0 mm 0.0 W/m2 RA
06:36 1.0 °C -2.9 °C 1002.6 hPa ENE 20.4 km/h 20.4 km/h 75% 2.0 mm 0.0 W/m2
06:41 1.1 °C -3.2 °C 1002.6 hPa East 57.4 km/h 57.4 km/h 73% 2.0 mm 0.0 W/m2 CLR
06:46 1.0 °C -3.1 °C 1002.6 hPa WNW 46.3 km/h 46.3 km/h 74% 2.0 mm 0.0 W/m2 CLR
06:51 1.0 °C -3.1 °C 1002.6 hPa NE 20.9 km/h 20.9 km/h 74% 2.0 mm 0.0 W/m2 CLR
07:01 1.1 °C -3.2 °C 1002.6 hPa NE 27.8 km/h 27.8 km/h 73% 2.0 mm 0.0 W/m2 RA
07:06 1.2 °C -3.3 °C 1002.6 hPa NE 30.6 km/h 30.6 km/h 72% 2.0 mm 0.0 W/m2 RA
07:11 1.2 °C -3.5 °C 1002.6 hPa NNW 46.3 km/h 46.3 km/h 71% 2.0 mm 0.0 W/m2
07:16 1.1 °C -3.6 °C 1002.6 hPa ESE 20.4 km/h 20.4 km/h 71% 2.0 mm 0.0 W/m2 CLR
07:21 1.2 °C -3.5 °C 1002.6 hPa NE 29.6 km/h 29.6 km/h 71% 2.0 mm 0.0 W/m2 CLR
07:32 1.2 °C -3.7 °C 1001.6 hPa NNE 25.9 km/h 25.9 km/h 70% 1.0 mm 0.0 W/m2 CLR
07:37 1.2 °C -3.9 °C 1001.6 hPa ESE 13.0 km/h 18.3 km/h 69% 1.0 mm 0.0 W/m2 CLR
07:42 1.3 °C -3.9 °C 1002.6 hPa East 29.6 km/h 29.6 km/h 68% 1.0 mm 0.0 W/m2 CLR
07:47 1.3 °C -4.2 °C 1002.6 hPa ENE 24.1 km/h 24.1 km/h 67% 2.0 mm 0.0 W/m2 RA
07:52 1.3 °C -3.9 °C 1002.6 hPa SE 18.5 km/h 18.5 km/h 68% 2.0 mm 0.0 W/m2 RA
07:57 1.2 °C -3.9 °C 1002.6 hPa ENE 37.0 km/h 37.0 km/h 69% 2.0 mm 0.0 W/m2
08:02 1.2 °C -4.1 °C 1002.6 hPa SSE 31.5 km/h 31.5 km/h 68% 1.0 mm 0.0 W/m2 RA
08:07 1.3 °C -4.2 °C 1002.6 hPa South 22.2 km/h 22.2 km/h 67% 1.0 mm 0.0 W/m2 RA
08:22 1.6 °C -4.5 °C 1002.6 hPa NNE 53.7 km/h 53.7 km/h 64% 1.0 mm 0.0 W/m2 CLR
08:27 1.6 °C -4.7 °C 1002.6 hPa NW 25.9 km/h 25.9 km/h 63% 1.0 mm 0.0 W/m2 CLR
08:32 1.7 °C -5.0 °C 1002.6 hPa NE 40.7 km/h 40.7 km/h 61% 1.0 mm 0.0 W/m2 CLR
08:37 1.8 °C -5.2 °C 1002.6 hPa North 64.8 km/h 64.8 km/h 60% 1.0 mm 0.0 W/m2 CLR
08:42 1.7 °C -5.0 °C 1002.6 hPa SE 35.2 km/h 35.2 km/h 61% 1.0 mm 0.0 W/m2 CLR
08:57 1.8 °C -4.9 °C 1002.6 hPa NNE 37.0 km/h 37.0 km/h 61% 0.0 mm 0.0 W/m2 CLR
09:02 1.9 °C -5.1 °C 1002.6 hPa SE 33.6 km/h 33.6 km/h 60% 0.0 mm 0.0 W/m2 CLR
09:07 1.9 °C -5.1 °C 1002.6 hPa ENE 35.2 km/h 35.2 km/h 60% 0.0 mm 0.0 W/m2 CLR
09:12 1.9 °C -4.8 °C 1001.6 hPa SE 20.4 km/h 20.4 km/h 61% 0.0 mm 0.0 W/m2 CLR
09:17 1.9 °C -4.8 °C 1001.6 hPa NE 29.0 km/h 29.0 km/h 61% 0.0 mm 0.0 W/m2 CLR
09:27 1.9 °C -4.8 °C 1001.6 hPa NNE 29.6 km/h 29.6 km/h 61% 0.0 mm 0.0 W/m2 CLR
09:37 2.0 °C -5.2 °C 1001.6 hPa NE 24.1 km/h 24.1 km/h 59% 0.0 mm 0.0 W/m2 CLR
09:47 2.0 °C -4.9 °C 1001.6 hPa East 9.3 km/h 9.3 km/h 60% 0.0 mm 0.0 W/m2 CLR
09:52 1.9 °C -5.1 °C 1001.6 hPa North 14.8 km/h 14.8 km/h 60% 0.0 mm 0.0 W/m2 CLR
09:57 1.9 °C -5.1 °C 1002.6 hPa NE 14.8 km/h 14.8 km/h 60% 0.0 mm 0.0 W/m2 CLR
10:02 1.8 °C -5.2 °C 1002.6 hPa ESE 9.3 km/h 9.3 km/h 60% 0.0 mm 0.0 W/m2 CLR
10:12 1.8 °C -5.2 °C 1002.6 hPa NE 18.5 km/h 18.5 km/h 60% 0.0 mm 0.0 W/m2 CLR
10:17 1.8 °C -4.9 °C 1002.6 hPa NNE 20.4 km/h 20.4 km/h 61% 0.0 mm 0.0 W/m2 CLR
10:19 1.8 °C -4.9 °C 1002.6 hPa NE 20.4 km/h 20.4 km/h 61% 0.0 mm 0.0 W/m2 CLR
10:24 1.8 °C -4.7 °C 1002.6 hPa ENE 20.4 km/h 20.4 km/h 62% 0.0 mm 0.0 W/m2 CLR
10:29 1.9 °C -4.4 °C 1001.6 hPa SE 14.8 km/h 14.8 km/h 63% 0.0 mm 0.0 W/m2 CLR
10:34 1.9 °C -4.2 °C 1001.6 hPa East 13.0 km/h 13.0 km/h 64% 0.0 mm 0.0 W/m2 CLR
10:39 1.9 °C -4.2 °C 1001.6 hPa NE 13.0 km/h 13.0 km/h 64% 0.0 mm 0.0 W/m2 CLR
10:44 1.9 °C -4.2 °C 1001.6 hPa NE 14.8 km/h 14.8 km/h 64% 0.0 mm 0.0 W/m2 CLR
10:49 1.9 °C -4.0 °C 1001.6 hPa NE 3.7 km/h 3.7 km/h 65% 0.0 mm 0.0 W/m2 CLR
10:54 1.9 °C -4.0 °C 1001.6 hPa WNW 14.8 km/h 14.8 km/h 65% 0.0 mm 0.0 W/m2 CLR
10:59 1.9 °C -3.8 °C 1002.6 hPa ENE 17.7 km/h 17.7 km/h 66% 0.0 mm 0.0 W/m2 CLR
11:04 1.9 °C -3.8 °C 1002.6 hPa NE 5.6 km/h 5.6 km/h 66% 0.0 mm 0.0 W/m2 CLR
11:09 1.9 °C -3.6 °C 1002.6 hPa ESE 20.4 km/h 20.4 km/h 67% 0.0 mm 0.0 W/m2 CLR
11:14 2.0 °C -3.3 °C 1002.6 hPa WNW 14.8 km/h 14.8 km/h 68% 0.0 mm 0.0 W/m2 CLR
11:19 1.9 °C -3.4 °C 1002.6 hPa NW 13.0 km/h 13.0 km/h 68% 0.0 mm 0.0 W/m2 CLR
11:24 1.9 °C -3.2 °C 1002.6 hPa ENE 7.4 km/h 7.4 km/h 69% 0.0 mm 0.0 W/m2 CLR
11:39 2.0 °C -2.7 °C 1002.6 hPa NNW 16.7 km/h 16.7 km/h 71% 0.0 mm 0.0 W/m2 CLR
Bakkaano Camping, Sokndal
Compliments of Weather Underground - 2 mb